createdAt,value
2017-10-23T00:02:13.989Z,101025
2017-10-23T00:04:49.029Z,101025
2017-10-23T00:07:23.087Z,101021
2017-10-23T00:28:48.260Z,101017
2017-10-23T00:31:20.616Z,101019
2017-10-23T00:36:46.346Z,101017
2017-10-23T00:39:14.540Z,101018
2017-10-23T00:41:42.737Z,101020
2017-10-23T00:44:10.920Z,101018
2017-10-23T00:46:39.103Z,101012
2017-10-23T00:49:07.560Z,101013
2017-10-23T00:51:35.767Z,101000
2017-10-23T00:54:04.016Z,101004
2017-10-23T00:56:32.192Z,101001
2017-10-23T00:59:00.471Z,101002
2017-10-23T01:01:28.657Z,101004
2017-10-23T01:03:56.874Z,101001
2017-10-23T01:06:25.092Z,101007
2017-10-23T01:08:53.287Z,101005
2017-10-23T01:11:21.480Z,101011
2017-10-23T01:13:49.683Z,101005
2017-10-23T01:16:18.647Z,101009
2017-10-23T01:18:46.855Z,100997
2017-10-23T01:21:15.048Z,100997
2017-10-23T01:23:43.222Z,101005
2017-10-23T01:26:11.588Z,100995
2017-10-23T01:28:39.816Z,101000
2017-10-23T01:31:08.015Z,100998
2017-10-23T01:33:36.964Z,100999
2017-10-23T01:36:05.151Z,100999
2017-10-23T01:38:33.330Z,100994
2017-10-23T01:41:01.494Z,100994
2017-10-23T01:43:29.688Z,100995
2017-10-23T01:45:57.896Z,100989
2017-10-23T01:48:26.102Z,100986
2017-10-23T01:50:54.320Z,100993
2017-10-23T01:53:23.267Z,100986
2017-10-23T01:55:51.447Z,100986
2017-10-23T01:58:19.640Z,100983
2017-10-23T02:00:47.887Z,100987
2017-10-23T02:03:16.078Z,100986
2017-10-23T02:05:44.315Z,100989
2017-10-23T02:08:12.516Z,100974
2017-10-23T02:10:41.079Z,100972
2017-10-23T02:13:09.299Z,100980
2017-10-23T02:15:37.500Z,100974
2017-10-23T02:18:05.711Z,100983
2017-10-23T02:20:33.908Z,100983
2017-10-23T02:23:02.095Z,100985
2017-10-23T02:25:31.060Z,100972
2017-10-23T02:27:59.266Z,100979
2017-10-23T02:30:28.235Z,100983
2017-10-23T02:32:56.464Z,100985
2017-10-23T02:35:24.790Z,100985
2017-10-23T02:37:53.004Z,100986
2017-10-23T02:40:21.231Z,100982
2017-10-23T02:42:49.459Z,100983
2017-10-23T02:45:17.660Z,100987
2017-10-23T02:47:45.849Z,100994
2017-10-23T02:50:14.051Z,100996
2017-10-23T02:52:43.096Z,100993
2017-10-23T02:55:11.292Z,101000
2017-10-23T02:57:39.804Z,100996
2017-10-23T03:00:08.764Z,101000
2017-10-23T03:02:37.003Z,100997
2017-10-23T03:05:05.196Z,100995
2017-10-23T03:07:33.404Z,100999
2017-10-23T03:10:01.575Z,100985
2017-10-23T03:12:29.751Z,100992
2017-10-23T03:14:58.864Z,100996
2017-10-23T03:17:27.822Z,100992
2017-10-23T03:19:56.003Z,100999
2017-10-23T03:22:24.213Z,100987
2017-10-23T03:24:52.416Z,100992
2017-10-23T03:27:20.599Z,100994
2017-10-23T03:29:49.169Z,100988
2017-10-23T03:32:17.379Z,100994
2017-10-23T03:34:45.576Z,100989
2017-10-23T03:37:14.562Z,100984
2017-10-23T03:39:43.496Z,100985
2017-10-23T03:42:11.732Z,100988
2017-10-23T03:44:39.935Z,100987
2017-10-23T03:47:08.140Z,100985
2017-10-23T03:49:36.343Z,100984
2017-10-23T03:52:05.298Z,100977
2017-10-23T03:54:33.563Z,100978
2017-10-23T03:57:01.772Z,100985
2017-10-23T03:59:29.967Z,100990
2017-10-23T04:01:58.179Z,100985
2017-10-23T04:04:26.360Z,100983
2017-10-23T04:06:54.584Z,100986
2017-10-23T04:09:23.527Z,100993
2017-10-23T04:11:52.004Z,100997
2017-10-23T04:14:20.201Z,100991
2017-10-23T04:16:48.408Z,100996
2017-10-23T04:19:17.364Z,100993
2017-10-23T04:21:45.552Z,100990
2017-10-23T04:24:13.779Z,100994
2017-10-23T04:26:41.987Z,101003
2017-10-23T04:29:10.156Z,101002
2017-10-23T04:31:38.395Z,100999
2017-10-23T04:34:06.652Z,101004
2017-10-23T04:36:34.918Z,101001
2017-10-23T04:39:03.104Z,101001
2017-10-23T04:41:31.288Z,100998
2017-10-23T04:43:59.518Z,101003
2017-10-23T04:46:27.683Z,100994
2017-10-23T04:48:55.986Z,101002
2017-10-23T04:51:24.960Z,100997
2017-10-23T04:53:53.198Z,101006
2017-10-23T04:56:21.403Z,100996
2017-10-23T04:58:49.606Z,100991
2017-10-23T05:01:17.823Z,101005
2017-10-23T05:03:46.007Z,100994
2017-10-23T05:06:14.237Z,100993
2017-10-23T05:08:42.409Z,100993
2017-10-23T05:11:10.604Z,100999
2017-10-23T05:13:39.818Z,101000
2017-10-23T05:16:08.023Z,101007
2017-10-23T05:18:36.955Z,101013
2017-10-23T05:21:05.189Z,101006
2017-10-23T05:23:34.156Z,101004
2017-10-23T05:26:02.351Z,101009
2017-10-23T05:28:31.316Z,101006
2017-10-23T05:30:59.552Z,101017
2017-10-23T05:33:27.728Z,101015
2017-10-23T05:35:55.940Z,101025
2017-10-23T05:38:24.139Z,101013
2017-10-23T05:40:53.103Z,101025
2017-10-23T05:43:21.352Z,101027
2017-10-23T05:45:49.536Z,101027
2017-10-23T05:48:18.506Z,101030
2017-10-23T05:50:46.995Z,101032
2017-10-23T05:53:15.195Z,101034
2017-10-23T05:55:43.407Z,101033
2017-10-23T05:58:12.376Z,101036
2017-10-23T06:00:40.587Z,101033
2017-10-23T06:03:08.772Z,101042
2017-10-23T06:05:37.032Z,101037
2017-10-23T06:08:05.225Z,101041
2017-10-23T06:10:33.545Z,101042
2017-10-23T06:13:01.760Z,101049
2017-10-23T06:15:29.980Z,101045
2017-10-23T06:17:58.190Z,101047
2017-10-23T06:20:27.135Z,101051
2017-10-23T06:22:55.690Z,101047
2017-10-23T06:25:23.984Z,101039
2017-10-23T06:27:52.147Z,101049
2017-10-23T06:30:20.334Z,101047
2017-10-23T06:32:48.537Z,101055
2017-10-23T06:35:16.735Z,101039
2017-10-23T06:37:45.970Z,101056
2017-10-23T06:40:14.197Z,101051
2017-10-23T06:42:43.145Z,101053
2017-10-23T06:45:11.497Z,101057
2017-10-23T06:47:40.706Z,101061
2017-10-23T06:50:09.139Z,101068
2017-10-23T06:52:38.106Z,101068
2017-10-23T06:55:06.356Z,101070
2017-10-23T06:57:34.625Z,101070
2017-10-23T07:00:02.838Z,101062
2017-10-23T07:02:31.022Z,101073
2017-10-23T07:05:00.071Z,101069
2017-10-23T07:07:28.428Z,101076
2017-10-23T07:09:56.606Z,101075
2017-10-23T07:12:24.822Z,101074
2017-10-23T07:14:53.027Z,101073
2017-10-23T07:17:22.091Z,101078
2017-10-23T07:19:50.278Z,101078
2017-10-23T07:22:18.471Z,101080
2017-10-23T07:24:46.650Z,101081
2017-10-23T07:27:14.832Z,101080
2017-10-23T07:29:43.011Z,101077
2017-10-23T07:32:11.179Z,101080
2017-10-23T07:34:39.404Z,101079
2017-10-23T07:37:07.586Z,101067
2017-10-23T07:39:35.782Z,101080
2017-10-23T07:42:03.953Z,101072
2017-10-23T07:44:32.899Z,101078
2017-10-23T07:47:01.081Z,101074
2017-10-23T07:49:29.246Z,101078
2017-10-23T07:51:57.431Z,101081
2017-10-23T07:54:25.601Z,101081
2017-10-23T07:56:53.841Z,101089
2017-10-23T07:59:22.018Z,101082
2017-10-23T08:01:50.204Z,101084
2017-10-23T08:04:18.408Z,101094
2017-10-23T08:06:46.604Z,101088
2017-10-23T08:09:15.549Z,101096
2017-10-23T08:11:43.810Z,101101
2017-10-23T08:14:11.999Z,101094
2017-10-23T08:16:40.326Z,101099
2017-10-23T08:19:08.535Z,101095
2017-10-23T08:21:36.723Z,101101
2017-10-23T08:24:04.952Z,101110
2017-10-23T08:26:33.159Z,101102
2017-10-23T08:29:01.329Z,101103
2017-10-23T08:31:29.505Z,101102
2017-10-23T08:33:57.713Z,101103
2017-10-23T08:36:25.949Z,101104
2017-10-23T08:38:54.129Z,101112
2017-10-23T08:41:23.079Z,101115
2017-10-23T08:43:51.283Z,101108
2017-10-23T08:46:19.478Z,101099
2017-10-23T08:48:47.722Z,101096
2017-10-23T08:51:15.927Z,101111
2017-10-23T08:53:45.277Z,101109
2017-10-23T08:56:13.483Z,101106
2017-10-23T08:58:41.663Z,101115
2017-10-23T09:01:10.707Z,101108
2017-10-23T09:03:39.658Z,101102
2017-10-23T09:06:07.836Z,101111
2017-10-23T09:08:36.015Z,101116
2017-10-23T09:11:04.187Z,101115
2017-10-23T09:13:32.365Z,101113
2017-10-23T09:16:00.555Z,101112
2017-10-23T09:18:29.516Z,101112
2017-10-23T09:20:57.705Z,101121
2017-10-23T09:23:25.893Z,101115
2017-10-23T09:25:54.839Z,101110
2017-10-23T09:28:23.081Z,101114
2017-10-23T09:30:51.254Z,101120
2017-10-23T09:33:19.426Z,101128
2017-10-23T09:35:47.610Z,101128
2017-10-23T09:38:15.798Z,101124
2017-10-23T09:40:44.005Z,101132
2017-10-23T09:43:12.180Z,101139
2017-10-23T09:45:40.373Z,101134
2017-10-23T09:48:09.323Z,101134
2017-10-23T09:50:37.519Z,101135
2017-10-23T09:53:05.700Z,101137
2017-10-23T09:55:34.219Z,101141
2017-10-23T09:58:02.409Z,101149
2017-10-23T10:00:30.629Z,101147
2017-10-23T10:02:59.586Z,101157
2017-10-23T10:05:27.770Z,101154
2017-10-23T10:07:55.953Z,101158
2017-10-23T10:10:24.203Z,101160
2017-10-23T10:12:52.432Z,101159
2017-10-23T10:15:21.375Z,101162
2017-10-23T10:17:49.574Z,101163
2017-10-23T10:20:17.806Z,101164
2017-10-23T10:22:45.992Z,101165
2017-10-23T10:25:14.251Z,101157
2017-10-23T10:27:42.430Z,101163
2017-10-23T10:30:10.650Z,101173
2017-10-23T10:32:38.867Z,101176
2017-10-23T10:35:07.072Z,101168
2017-10-23T10:37:35.270Z,101174
2017-10-23T10:40:04.216Z,101169
2017-10-23T10:42:32.459Z,101182
2017-10-23T10:45:00.631Z,101185
2017-10-23T10:47:29.597Z,101186
2017-10-23T10:49:57.776Z,101189
2017-10-23T10:52:26.733Z,101178
2017-10-23T10:54:54.938Z,101178
2017-10-23T10:57:23.130Z,101184
2017-10-23T10:59:52.076Z,101179
2017-10-23T11:02:20.271Z,101185
2017-10-23T11:04:48.451Z,101182
2017-10-23T11:07:17.398Z,101178
2017-10-23T11:09:45.658Z,101184
2017-10-23T11:12:13.858Z,101193
2017-10-23T11:14:42.031Z,101194
2017-10-23T11:17:10.217Z,101188
2017-10-23T11:19:38.464Z,101199
2017-10-23T11:22:06.662Z,101193
2017-10-23T11:24:34.842Z,101198
2017-10-23T11:27:03.099Z,101194
2017-10-23T11:29:31.330Z,101197
2017-10-23T11:31:59.497Z,101198
2017-10-23T11:34:27.693Z,101199
2017-10-23T11:36:55.901Z,101206
2017-10-23T11:39:24.562Z,101204
2017-10-23T11:41:52.756Z,101205
2017-10-23T11:44:20.978Z,101205
2017-10-23T11:46:49.202Z,101209
2017-10-23T11:49:17.406Z,101206
2017-10-23T11:51:46.399Z,101200
2017-10-23T11:54:15.370Z,101201
2017-10-23T11:56:43.594Z,101204
2017-10-23T11:59:11.795Z,101209
2017-10-23T12:01:39.963Z,101212
2017-10-23T12:04:08.200Z,101216
2017-10-23T12:06:36.419Z,101208
2017-10-23T12:09:05.342Z,101215
2017-10-23T12:11:33.523Z,101212
2017-10-23T12:14:01.715Z,101222
2017-10-23T12:16:29.881Z,101217
2017-10-23T12:18:58.847Z,101212
2017-10-23T12:21:27.035Z,101217
2017-10-23T12:23:56.015Z,101221
2017-10-23T12:26:24.192Z,101213
2017-10-23T12:28:52.384Z,101215
2017-10-23T12:31:21.391Z,101219
2017-10-23T12:33:49.579Z,101228
2017-10-23T12:36:17.777Z,101222
2017-10-23T12:38:45.988Z,101235
2017-10-23T12:41:14.929Z,101217
2017-10-23T12:43:43.185Z,101225
2017-10-23T12:46:11.431Z,101227
2017-10-23T12:48:40.408Z,101228
2017-10-23T12:51:08.657Z,101239
2017-10-23T12:53:36.834Z,101231
2017-10-23T12:56:05.026Z,101236
2017-10-23T12:58:33.211Z,101243
2017-10-23T13:01:02.151Z,101239
2017-10-23T13:03:30.356Z,101239
2017-10-23T13:05:58.546Z,101237
2017-10-23T13:08:26.823Z,101251
2017-10-23T13:10:55.776Z,101255
2017-10-23T13:15:57.429Z,101253
2017-10-23T13:18:25.623Z,101254
2017-10-23T13:20:53.856Z,101257
2017-10-23T13:23:22.022Z,101260
2017-10-23T13:25:50.434Z,101265
2017-10-23T13:28:18.691Z,101264
2017-10-23T13:30:46.873Z,101263
2017-10-23T13:33:15.078Z,101271
2017-10-23T13:35:43.325Z,101265
2017-10-23T13:38:11.540Z,101266
2017-10-23T13:40:39.839Z,101269
2017-10-23T13:43:08.100Z,101280
2017-10-23T13:45:36.268Z,101277
2017-10-23T13:48:04.501Z,101280
2017-10-23T13:50:32.761Z,101276
2017-10-23T13:53:01.091Z,101289
2017-10-23T13:55:29.383Z,101284
2017-10-23T13:57:58.363Z,101287
2017-10-23T14:00:27.473Z,101299
2017-10-23T14:02:56.799Z,101297
2017-10-23T14:05:25.133Z,101294
2017-10-23T14:07:53.356Z,101297
2017-10-23T14:10:21.583Z,101301
2017-10-23T14:12:49.753Z,101297
2017-10-23T14:15:17.940Z,101305
2017-10-23T14:17:46.948Z,101307
2017-10-23T14:20:15.127Z,101318
2017-10-23T14:22:43.318Z,101325
2017-10-23T14:25:11.516Z,101316
2017-10-23T14:27:39.756Z,101315
2017-10-23T14:30:07.944Z,101323
2017-10-23T14:32:36.204Z,101320
2017-10-23T14:35:04.392Z,101333
2017-10-23T14:37:32.563Z,101328
2017-10-23T14:40:00.749Z,101332
2017-10-23T14:42:28.916Z,101340
2017-10-23T14:44:57.128Z,101349
2017-10-23T14:47:25.822Z,101347
2017-10-23T14:49:54.762Z,101350
2017-10-23T14:52:22.919Z,101349
2017-10-23T14:54:51.083Z,101361
2017-10-23T14:57:19.274Z,101358
2017-10-23T14:59:48.220Z,101358
2017-10-23T15:02:17.185Z,101363
2017-10-23T15:04:45.386Z,101368
2017-10-23T15:07:14.342Z,101365
2017-10-23T15:09:42.551Z,101373
2017-10-23T15:12:11.567Z,101374
2017-10-23T15:14:39.758Z,101368
2017-10-23T15:17:08.056Z,101375
2017-10-23T15:19:36.285Z,101377
2017-10-23T15:22:04.529Z,101380
2017-10-23T15:24:32.718Z,101393
2017-10-23T15:27:01.685Z,101393
2017-10-23T15:29:29.957Z,101386
2017-10-23T15:31:58.166Z,101387
2017-10-23T15:34:27.122Z,101398
2017-10-23T15:36:55.307Z,101386
2017-10-23T15:39:23.487Z,101404
2017-10-23T15:41:51.754Z,101400
2017-10-23T15:44:19.953Z,101406
2017-10-23T15:46:48.898Z,101403
2017-10-23T15:49:17.116Z,101412
2017-10-23T15:51:45.314Z,101420
2017-10-23T15:54:13.535Z,101428
2017-10-23T15:56:41.762Z,101433
2017-10-23T15:59:09.954Z,101438
2017-10-23T16:01:38.139Z,101440
2017-10-23T16:04:06.352Z,101437
2017-10-23T16:06:35.310Z,101444
2017-10-23T16:09:03.535Z,101450
2017-10-23T16:11:31.718Z,101457
2017-10-23T16:13:59.931Z,101461
2017-10-23T16:16:28.131Z,101462
2017-10-23T16:18:57.090Z,101467
2017-10-23T16:23:59.737Z,101476
2017-10-23T16:26:27.959Z,101478
2017-10-23T16:28:56.149Z,101481
2017-10-23T16:31:24.318Z,101488
2017-10-23T16:33:52.697Z,101491
2017-10-23T16:36:20.936Z,101486
2017-10-23T16:38:51.381Z,101494
2017-10-23T16:41:19.667Z,101498
2017-10-23T16:43:47.861Z,101494
2017-10-23T16:46:16.862Z,101491
2017-10-23T16:48:45.825Z,101495
2017-10-23T16:51:14.007Z,101497
2017-10-23T16:53:42.288Z,101502
2017-10-23T16:56:10.477Z,101504
2017-10-23T16:58:39.466Z,101510
2017-10-23T17:01:08.423Z,101519
2017-10-23T17:03:36.929Z,101525
2017-10-23T17:06:05.164Z,101522
2017-10-23T17:08:33.510Z,101523
2017-10-23T17:11:01.704Z,101528
2017-10-23T17:13:29.933Z,101535
2017-10-23T17:15:59.060Z,101538
2017-10-23T17:18:27.302Z,101550
2017-10-23T17:20:55.495Z,101551
2017-10-23T17:23:23.706Z,101557
2017-10-23T17:25:51.913Z,101553
2017-10-23T17:28:20.289Z,101560
2017-10-23T17:30:48.630Z,101563
2017-10-23T17:33:16.850Z,101562
2017-10-23T17:35:45.808Z,101570
2017-10-23T17:38:13.990Z,101576
2017-10-23T17:40:42.182Z,101579
2017-10-23T17:43:10.448Z,101577
2017-10-23T17:45:38.663Z,101583
2017-10-23T17:48:06.863Z,101592
2017-10-23T17:50:35.058Z,101591
2017-10-23T17:53:03.667Z,101599
2017-10-23T17:55:32.731Z,101601
2017-10-23T17:58:01.024Z,101614
2017-10-23T18:00:29.199Z,101609
2017-10-23T18:02:57.401Z,101622
2017-10-23T18:05:26.417Z,101623
2017-10-23T18:07:54.612Z,101631
2017-10-23T18:10:22.813Z,101624
2017-10-23T18:12:51.162Z,101632
2017-10-23T18:15:19.360Z,101644
2017-10-23T18:17:47.591Z,101648
2017-10-23T18:20:15.786Z,101652
2017-10-23T18:22:43.974Z,101654
2017-10-23T18:25:12.158Z,101649
2017-10-23T18:27:40.576Z,101652
2017-10-23T18:30:08.787Z,101660
2017-10-23T18:32:37.070Z,101662
2017-10-23T18:35:05.291Z,101668
2017-10-23T18:37:33.564Z,101667
2017-10-23T18:40:02.542Z,101661
2017-10-23T18:42:31.500Z,101658
2017-10-23T18:44:59.765Z,101671
2017-10-23T18:47:28.767Z,101673
2017-10-23T18:49:56.993Z,101667
2017-10-23T18:52:25.187Z,101667
2017-10-23T18:54:53.406Z,101675
2017-10-23T18:57:21.586Z,101674
2017-10-23T18:59:49.925Z,101676
2017-10-23T19:02:18.134Z,101685
2017-10-23T19:04:46.355Z,101674
2017-10-23T19:07:15.141Z,101678
2017-10-23T19:09:43.380Z,101690
2017-10-23T19:12:12.335Z,101701
2017-10-23T19:14:40.634Z,101704
2017-10-23T19:17:08.880Z,101703
2017-10-23T19:19:37.216Z,101700
2017-10-23T19:22:05.543Z,101703
2017-10-23T19:24:33.770Z,101700
2017-10-23T19:27:02.043Z,101712
2017-10-23T19:29:30.302Z,101716
2017-10-23T19:31:59.492Z,101719
2017-10-23T19:34:28.526Z,101720
2017-10-23T19:36:56.824Z,101715
2017-10-23T19:39:25.024Z,101713
2017-10-23T19:41:53.331Z,101724
2017-10-23T19:44:21.553Z,101727
2017-10-23T19:46:49.800Z,101727
2017-10-23T19:49:18.009Z,101734
2017-10-23T19:51:46.206Z,101732
2017-10-23T19:54:15.148Z,101733
2017-10-23T19:56:43.358Z,101734
2017-10-23T19:59:11.544Z,101743
2017-10-23T20:01:40.591Z,101753
2017-10-23T20:04:08.941Z,101746
2017-10-23T20:06:37.123Z,101748
2017-10-23T20:09:05.289Z,101752
2017-10-23T20:11:34.342Z,101757
2017-10-23T20:14:02.527Z,101760
2017-10-23T20:16:31.553Z,101764
2017-10-23T20:18:59.777Z,101759
2017-10-23T20:21:28.014Z,101769
2017-10-23T20:23:56.252Z,101774
2017-10-23T20:26:25.274Z,101777
2017-10-23T20:28:53.689Z,101776
2017-10-23T20:31:22.000Z,101785
2017-10-23T20:33:51.070Z,101779
2017-10-23T20:36:19.338Z,101781
2017-10-23T20:38:47.587Z,101784
2017-10-23T20:41:15.800Z,101785
2017-10-23T20:43:45.069Z,101790
2017-10-23T20:46:13.266Z,101800
2017-10-23T20:48:41.524Z,101797
2017-10-23T20:51:09.845Z,101798
2017-10-23T20:53:38.141Z,101802
2017-10-23T20:56:06.518Z,101812
2017-10-23T20:58:34.819Z,101814
2017-10-23T21:01:03.009Z,101824
2017-10-23T21:03:31.299Z,101819
2017-10-23T21:05:59.797Z,101827
2017-10-23T21:08:28.766Z,101824
2017-10-23T21:10:56.996Z,101823
2017-10-23T21:13:25.248Z,101825
2017-10-23T21:15:54.223Z,101833
2017-10-23T21:18:23.235Z,101832
2017-10-23T21:20:51.442Z,101832
2017-10-23T21:23:19.723Z,101824
2017-10-23T21:25:47.916Z,101833
2017-10-23T21:28:16.142Z,101823
2017-10-23T21:30:44.352Z,101828
2017-10-23T21:33:12.651Z,101831
2017-10-23T21:35:40.878Z,101828
2017-10-23T21:38:09.105Z,101830
2017-10-23T21:40:37.285Z,101837
2017-10-23T21:43:06.309Z,101838
2017-10-23T21:45:34.495Z,101844
2017-10-23T21:48:10.613Z,101848
2017-10-23T21:50:39.759Z,101850
2017-10-23T21:53:09.299Z,101852
2017-10-23T21:55:37.726Z,101856
2017-10-23T21:58:06.513Z,101856
2017-10-23T22:00:35.987Z,101870
2017-10-23T22:15:43.831Z,101890
2017-10-23T22:23:24.048Z,101889
